sensor_id;sensor_type;location;lat;lon;timestamp;pressure;altitude;pressure_sealevel;temperature;humidity
59274;BME280;45044;41.572;24.730;2022-12-19T00:01:34;92685.53;;;1.91;100.00
59274;BME280;45044;41.572;24.730;2022-12-19T00:04:04;92685.78;;;2.09;100.00
59274;BME280;45044;41.572;24.730;2022-12-19T00:06:35;92693.91;;;2.02;100.00
59274;BME280;45044;41.572;24.730;2022-12-19T00:09:04;92704.97;;;2.08;100.00
59274;BME280;45044;41.572;24.730;2022-12-19T00:11:31;92706.63;;;2.03;100.00
59274;BME280;45044;41.572;24.730;2022-12-19T00:13:59;92707.84;;;2.06;100.00
59274;BME280;45044;41.572;24.730;2022-12-19T00:16:28;92710.50;;;1.87;100.00
59274;BME280;45044;41.572;24.730;2022-12-19T00:18:57;92708.81;;;1.96;100.00
59274;BME280;45044;41.572;24.730;2022-12-19T00:21:27;92710.84;;;1.80;100.00
59274;BME280;45044;41.572;24.730;2022-12-19T00:23:54;92716.66;;;1.91;100.00
59274;BME280;45044;41.572;24.730;2022-12-19T00:26:26;92716.41;;;1.73;100.00
59274;BME280;45044;41.572;24.730;2022-12-19T00:28:56;92721.09;;;1.71;100.00
59274;BME280;45044;41.572;24.730;2022-12-19T00:31:28;92725.13;;;1.63;100.00
59274;BME280;45044;41.572;24.730;2022-12-19T00:33:56;92723.72;;;1.33;100.00
59274;BME280;45044;41.572;24.730;2022-12-19T00:36:25;92730.63;;;1.57;100.00
59274;BME280;45044;41.572;24.730;2022-12-19T00:38:53;92734.66;;;1.49;100.00
59274;BME280;45044;41.572;24.730;2022-12-19T00:41:23;92730.22;;;1.49;100.00
59274;BME280;45044;41.572;24.730;2022-12-19T00:46:20;92724.25;;;1.68;100.00
59274;BME280;45044;41.572;24.730;2022-12-19T00:48:48;92723.28;;;1.64;100.00
59274;BME280;45044;41.572;24.730;2022-12-19T00:51:17;92716.72;;;1.52;100.00
59274;BME280;45044;41.572;24.730;2022-12-19T00:53:45;92727.19;;;1.42;100.00
59274;BME280;45044;41.572;24.730;2022-12-19T00:56:16;92735.47;;;1.25;100.00
59274;BME280;45044;41.572;24.730;2022-12-19T00:58:44;92733.22;;;1.18;100.00
59274;BME280;45044;41.572;24.730;2022-12-19T01:01:16;92731.25;;;1.10;100.00
59274;BME280;45044;41.572;24.730;2022-12-19T01:03:43;92737.91;;;1.16;100.00
59274;BME280;45044;41.572;24.730;2022-12-19T01:06:30;92742.75;;;1.23;100.00
59274;BME280;45044;41.572;24.730;2022-12-19T01:08:58;92733.53;;;1.36;100.00
59274;BME280;45044;41.572;24.730;2022-12-19T01:11:25;92726.13;;;1.24;100.00
59274;BME280;45044;41.572;24.730;2022-12-19T01:14:11;92739.94;;;1.19;100.00
59274;BME280;45044;41.572;24.730;2022-12-19T01:16:46;92732.59;;;1.07;100.00
59274;BME280;45044;41.572;24.730;2022-12-19T01:19:13;92741.47;;;1.20;100.00
59274;BME280;45044;41.572;24.730;2022-12-19T01:21:39;92740.84;;;1.09;100.00
59274;BME280;45044;41.572;24.730;2022-12-19T01:24:06;92749.25;;;0.76;100.00
59274;BME280;45044;41.572;24.730;2022-12-19T01:26:33;92743.28;;;0.76;100.00
59274;BME280;45044;41.572;24.730;2022-12-19T01:29:00;92741.53;;;0.71;100.00
59274;BME280;45044;41.572;24.730;2022-12-19T01:31:27;92742.91;;;0.88;100.00
59274;BME280;45044;41.572;24.730;2022-12-19T01:33:54;92747.13;;;0.78;100.00
59274;BME280;45044;41.572;24.730;2022-12-19T01:36:20;92748.28;;;0.91;100.00
59274;BME280;45044;41.572;24.730;2022-12-19T01:38:47;92749.03;;;0.73;100.00
59274;BME280;45044;41.572;24.730;2022-12-19T01:41:14;92742.56;;;0.70;100.00
59274;BME280;45044;41.572;24.730;2022-12-19T01:44:05;92741.28;;;0.67;100.00
59274;BME280;45044;41.572;24.730;2022-12-19T01:46:41;92748.84;;;0.64;100.00
59274;BME280;45044;41.572;24.730;2022-12-19T01:49:23;92742.03;;;0.73;100.00
59274;BME280;45044;41.572;24.730;2022-12-19T01:51:55;92748.81;;;0.69;100.00
59274;BME280;45044;41.572;24.730;2022-12-19T01:54:29;92738.25;;;0.65;100.00
59274;BME280;45044;41.572;24.730;2022-12-19T01:56:58;92744.88;;;0.71;100.00
59274;BME280;45044;41.572;24.730;2022-12-19T01:59:33;92743.56;;;0.74;100.00
59274;BME280;45044;41.572;24.730;2022-12-19T02:02:12;92727.91;;;0.60;100.00
59274;BME280;45044;41.572;24.730;2022-12-19T02:04:40;92730.13;;;0.47;100.00
59274;BME280;45044;41.572;24.730;2022-12-19T02:07:07;92726.16;;;0.31;100.00
59274;BME280;45044;41.572;24.730;2022-12-19T02:09:43;92725.81;;;0.38;100.00
59274;BME280;45044;41.572;24.730;2022-12-19T02:12:11;92729.50;;;0.31;100.00
59274;BME280;45044;41.572;24.730;2022-12-19T02:14:39;92725.44;;;0.25;100.00
59274;BME280;45044;41.572;24.730;2022-12-19T02:17:28;92722.78;;;0.30;100.00
59274;BME280;45044;41.572;24.730;2022-12-19T02:25:47;92731.28;;;0.36;100.00
59274;BME280;45044;41.572;24.730;2022-12-19T02:33:53;92738.13;;;0.21;100.00
59274;BME280;45044;41.572;24.730;2022-12-19T02:39:15;92744.63;;;0.19;100.00
59274;BME280;45044;41.572;24.730;2022-12-19T02:41:56;92747.16;;;0.24;100.00
59274;BME280;45044;41.572;24.730;2022-12-19T02:44:30;92752.94;;;0.16;100.00
59274;BME280;45044;41.572;24.730;2022-12-19T02:47:01;92750.38;;;0.10;100.00
59274;BME280;45044;41.572;24.730;2022-12-19T02:49:29;92748.22;;;0.23;100.00
59274;BME280;45044;41.572;24.730;2022-12-19T02:52:06;92746.25;;;0.09;100.00
59274;BME280;45044;41.572;24.730;2022-12-19T02:54:33;92744.34;;;0.20;100.00
59274;BME280;45044;41.572;24.730;2022-12-19T03:00:11;92759.06;;;0.25;100.00
59274;BME280;45044;41.572;24.730;2022-12-19T03:03:34;92766.66;;;0.41;100.00
59274;BME280;45044;41.572;24.730;2022-12-19T03:05:54;92767.31;;;0.27;100.00
59274;BME280;45044;41.572;24.730;2022-12-19T03:08:37;92768.91;;;0.23;100.00
59274;BME280;45044;41.572;24.730;2022-12-19T03:11:09;92777.16;;;0.25;100.00
59274;BME280;45044;41.572;24.730;2022-12-19T03:16:09;92785.69;;;0.26;100.00
59274;BME280;45044;41.572;24.730;2022-12-19T03:18:37;92779.72;;;0.30;100.00
59274;BME280;45044;41.572;24.730;2022-12-19T03:21:16;92776.63;;;0.28;100.00
59274;BME280;45044;41.572;24.730;2022-12-19T03:23:47;92784.50;;;0.42;100.00
59274;BME280;45044;41.572;24.730;2022-12-19T03:26:18;92787.09;;;0.42;100.00
59274;BME280;45044;41.572;24.730;2022-12-19T03:28:56;92783.16;;;0.50;100.00
59274;BME280;45044;41.572;24.730;2022-12-19T03:31:28;92779.38;;;0.37;100.00
59274;BME280;45044;41.572;24.730;2022-12-19T03:34:02;92790.91;;;0.20;100.00
59274;BME280;45044;41.572;24.730;2022-12-19T03:36:35;92796.94;;;0.10;100.00
59274;BME280;45044;41.572;24.730;2022-12-19T03:39:06;92795.47;;;-0.01;100.00
59274;BME280;45044;41.572;24.730;2022-12-19T03:41:35;92780.31;;;0.17;100.00
59274;BME280;45044;41.572;24.730;2022-12-19T03:44:24;92783.16;;;-0.15;100.00
59274;BME280;45044;41.572;24.730;2022-12-19T03:49:38;92804.16;;;0.14;100.00
59274;BME280;45044;41.572;24.730;2022-12-19T03:52:33;92807.78;;;0.13;100.00
59274;BME280;45044;41.572;24.730;2022-12-19T03:57:38;92801.41;;;-0.01;100.00
59274;BME280;45044;41.572;24.730;2022-12-19T04:00:12;92801.41;;;-0.01;100.00
59274;BME280;45044;41.572;24.730;2022-12-19T04:02:43;92808.84;;;0.06;100.00
59274;BME280;45044;41.572;24.730;2022-12-19T04:05:22;92801.97;;;-0.04;100.00
59274;BME280;45044;41.572;24.730;2022-12-19T04:07:54;92806.44;;;-0.15;100.00
59274;BME280;45044;41.572;24.730;2022-12-19T04:10:23;92813.13;;;-0.14;100.00
59274;BME280;45044;41.572;24.730;2022-12-19T04:13:02;92824.00;;;-0.17;100.00
59274;BME280;45044;41.572;24.730;2022-12-19T04:18:13;92823.47;;;-0.14;100.00
59274;BME280;45044;41.572;24.730;2022-12-19T04:20:44;92822.88;;;0.00;100.00
59274;BME280;45044;41.572;24.730;2022-12-19T04:23:30;92838.47;;;-0.16;100.00
59274;BME280;45044;41.572;24.730;2022-12-19T04:26:02;92832.31;;;-0.25;100.00
59274;BME280;45044;41.572;24.730;2022-12-19T04:28:52;92840.81;;;-0.19;100.00
59274;BME280;45044;41.572;24.730;2022-12-19T04:31:20;92841.13;;;-0.26;100.00
59274;BME280;45044;41.572;24.730;2022-12-19T04:33:47;92848.06;;;-0.21;100.00
59274;BME280;45044;41.572;24.730;2022-12-19T04:36:14;92845.34;;;-0.41;100.00
59274;BME280;45044;41.572;24.730;2022-12-19T04:38:40;92851.25;;;-0.35;100.00
59274;BME280;45044;41.572;24.730;2022-12-19T04:41:07;92857.19;;;-0.29;100.00
59274;BME280;45044;41.572;24.730;2022-12-19T04:43:34;92847.59;;;-0.29;100.00
59274;BME280;45044;41.572;24.730;2022-12-19T04:46:01;92857.72;;;-0.38;100.00
59274;BME280;45044;41.572;24.730;2022-12-19T04:48:28;92855.34;;;-0.29;100.00
59274;BME280;45044;41.572;24.730;2022-12-19T04:50:55;92858.94;;;-0.25;100.00
59274;BME280;45044;41.572;24.730;2022-12-19T04:53:22;92858.44;;;-0.27;100.00
59274;BME280;45044;41.572;24.730;2022-12-19T04:55:49;92865.16;;;-0.26;100.00
59274;BME280;45044;41.572;24.730;2022-12-19T04:58:15;92854.09;;;-0.42;100.00
59274;BME280;45044;41.572;24.730;2022-12-19T05:00:47;92858.78;;;-0.49;100.00
59274;BME280;45044;41.572;24.730;2022-12-19T05:03:14;92857.44;;;-0.36;100.00
59274;BME280;45044;41.572;24.730;2022-12-19T05:05:41;92857.91;;;-0.23;100.00
59274;BME280;45044;41.572;24.730;2022-12-19T05:08:08;92858.75;;;-0.33;100.00
59274;BME280;45044;41.572;24.730;2022-12-19T05:10:35;92853.59;;;-0.39;100.00
59274;BME280;45044;41.572;24.730;2022-12-19T05:13:02;92865.06;;;-0.10;100.00
59274;BME280;45044;41.572;24.730;2022-12-19T05:15:29;92877.25;;;-0.16;100.00
59274;BME280;45044;41.572;24.730;2022-12-19T05:17:56;92874.75;;;-0.31;100.00
59274;BME280;45044;41.572;24.730;2022-12-19T05:20:23;92879.94;;;-0.31;100.00
59274;BME280;45044;41.572;24.730;2022-12-19T05:22:50;92888.72;;;-0.38;100.00
59274;BME280;45044;41.572;24.730;2022-12-19T05:25:16;92879.72;;;-0.40;100.00
59274;BME280;45044;41.572;24.730;2022-12-19T05:27:43;92883.09;;;-0.50;100.00
59274;BME280;45044;41.572;24.730;2022-12-19T05:30:10;92885.38;;;-0.43;100.00
59274;BME280;45044;41.572;24.730;2022-12-19T05:32:37;92878.97;;;-0.46;100.00
59274;BME280;45044;41.572;24.730;2022-12-19T05:35:04;92881.44;;;-0.25;100.00
59274;BME280;45044;41.572;24.730;2022-12-19T05:37:31;92894.09;;;-0.23;100.00
59274;BME280;45044;41.572;24.730;2022-12-19T05:39:58;92898.00;;;-0.26;100.00
59274;BME280;45044;41.572;24.730;2022-12-19T05:42:24;92900.13;;;-0.39;100.00
59274;BME280;45044;41.572;24.730;2022-12-19T05:44:52;92890.09;;;-0.56;100.00
59274;BME280;45044;41.572;24.730;2022-12-19T05:47:18;92895.69;;;-0.38;100.00
59274;BME280;45044;41.572;24.730;2022-12-19T05:49:45;92901.13;;;-0.29;100.00
59274;BME280;45044;41.572;24.730;2022-12-19T05:52:12;92895.47;;;-0.37;100.00
59274;BME280;45044;41.572;24.730;2022-12-19T05:54:39;92901.69;;;-0.48;100.00
59274;BME280;45044;41.572;24.730;2022-12-19T05:57:06;92905.06;;;-0.53;100.00
59274;BME280;45044;41.572;24.730;2022-12-19T05:59:32;92905.91;;;-0.68;100.00
59274;BME280;45044;41.572;24.730;2022-12-19T06:01:59;92911.34;;;-0.69;100.00
59274;BME280;45044;41.572;24.730;2022-12-19T06:04:28;92916.44;;;-0.54;100.00
59274;BME280;45044;41.572;24.730;2022-12-19T06:06:55;92907.91;;;-0.54;100.00
59274;BME280;45044;41.572;24.730;2022-12-19T06:09:22;92885.25;;;-0.73;100.00
59274;BME280;45044;41.572;24.730;2022-12-19T06:11:49;92920.09;;;-0.65;100.00
59274;BME280;45044;41.572;24.730;2022-12-19T06:14:16;92924.94;;;-0.48;100.00
59274;BME280;45044;41.572;24.730;2022-12-19T06:16:43;92929.91;;;-0.62;100.00
59274;BME280;45044;41.572;24.730;2022-12-19T06:19:10;92923.16;;;-0.53;100.00
59274;BME280;45044;41.572;24.730;2022-12-19T06:21:36;92931.69;;;-0.52;100.00
59274;BME280;45044;41.572;24.730;2022-12-19T06:24:13;92929.56;;;-0.29;100.00
59274;BME280;45044;41.572;24.730;2022-12-19T06:26:40;92933.63;;;-0.23;100.00
59274;BME280;45044;41.572;24.730;2022-12-19T06:29:07;92938.28;;;-0.20;100.00
59274;BME280;45044;41.572;24.730;2022-12-19T06:31:34;92937.84;;;-0.38;100.00
59274;BME280;45044;41.572;24.730;2022-12-19T06:34:00;92936.31;;;-0.49;100.00
59274;BME280;45044;41.572;24.730;2022-12-19T06:36:29;92936.06;;;-0.53;100.00
59274;BME280;45044;41.572;24.730;2022-12-19T06:38:57;92938.84;;;-0.33;100.00
59274;BME280;45044;41.572;24.730;2022-12-19T06:41:24;92938.19;;;-0.60;100.00
59274;BME280;45044;41.572;24.730;2022-12-19T06:44:12;92943.03;;;-0.48;100.00
59274;BME280;45044;41.572;24.730;2022-12-19T06:46:39;92928.06;;;-0.51;100.00
59274;BME280;45044;41.572;24.730;2022-12-19T06:49:07;92952.59;;;-0.49;100.00
59274;BME280;45044;41.572;24.730;2022-12-19T06:51:35;92954.41;;;-0.44;100.00
59274;BME280;45044;41.572;24.730;2022-12-19T06:54:02;92960.63;;;0.16;100.00
59274;BME280;45044;41.572;24.730;2022-12-19T06:56:36;92955.78;;;-0.01;100.00
59274;BME280;45044;41.572;24.730;2022-12-19T06:59:04;92952.75;;;-0.19;100.00
59274;BME280;45044;41.572;24.730;2022-12-19T07:04:20;92963.13;;;-0.24;100.00
59274;BME280;45044;41.572;24.730;2022-12-19T07:06:49;92967.19;;;-0.02;100.00
59274;BME280;45044;41.572;24.730;2022-12-19T07:09:16;92960.16;;;0.04;100.00
59274;BME280;45044;41.572;24.730;2022-12-19T07:11:43;92962.72;;;0.04;100.00
59274;BME280;45044;41.572;24.730;2022-12-19T07:14:10;92967.22;;;-0.18;100.00
59274;BME280;45044;41.572;24.730;2022-12-19T07:16:37;92971.00;;;0.06;100.00
59274;BME280;45044;41.572;24.730;2022-12-19T07:19:05;92968.31;;;-0.34;100.00
59274;BME280;45044;41.572;24.730;2022-12-19T07:21:34;92974.00;;;-0.38;100.00
59274;BME280;45044;41.572;24.730;2022-12-19T07:24:02;92980.47;;;-0.30;100.00
59274;BME280;45044;41.572;24.730;2022-12-19T07:26:30;92981.00;;;-0.43;100.00
59274;BME280;45044;41.572;24.730;2022-12-19T07:28:59;92972.50;;;-0.59;100.00
59274;BME280;45044;41.572;24.730;2022-12-19T07:31:25;92986.16;;;-0.43;100.00
59274;BME280;45044;41.572;24.730;2022-12-19T07:33:52;92982.47;;;-0.16;100.00
59274;BME280;45044;41.572;24.730;2022-12-19T07:36:19;92982.41;;;0.05;100.00
59274;BME280;45044;41.572;24.730;2022-12-19T07:38:46;92981.94;;;-0.08;100.00
59274;BME280;45044;41.572;24.730;2022-12-19T07:41:13;92989.19;;;-0.10;100.00
59274;BME280;45044;41.572;24.730;2022-12-19T07:43:39;92988.50;;;-0.42;100.00
59274;BME280;45044;41.572;24.730;2022-12-19T07:46:06;92988.41;;;-0.16;100.00
59274;BME280;45044;41.572;24.730;2022-12-19T07:48:33;92998.72;;;0.00;100.00
59274;BME280;45044;41.572;24.730;2022-12-19T07:51:03;93000.28;;;-0.04;100.00
59274;BME280;45044;41.572;24.730;2022-12-19T07:53:31;93000.38;;;0.36;100.00
59274;BME280;45044;41.572;24.730;2022-12-19T07:55:58;92998.38;;;0.17;100.00
59274;BME280;45044;41.572;24.730;2022-12-19T07:58:24;92994.59;;;-0.06;100.00
59274;BME280;45044;41.572;24.730;2022-12-19T08:00:56;92994.66;;;-0.27;100.00
59274;BME280;45044;41.572;24.730;2022-12-19T08:03:24;93003.78;;;0.26;100.00
59274;BME280;45044;41.572;24.730;2022-12-19T08:05:51;92991.47;;;-0.03;100.00
59274;BME280;45044;41.572;24.730;2022-12-19T08:08:17;93007.09;;;0.37;100.00
59274;BME280;45044;41.572;24.730;2022-12-19T08:10:44;93006.59;;;0.30;100.00
59274;BME280;45044;41.572;24.730;2022-12-19T08:13:11;93002.78;;;0.62;100.00
59274;BME280;45044;41.572;24.730;2022-12-19T08:15:38;92997.56;;;0.22;100.00
59274;BME280;45044;41.572;24.730;2022-12-19T08:18:05;93011.41;;;0.52;100.00
59274;BME280;45044;41.572;24.730;2022-12-19T08:20:32;93010.59;;;0.57;100.00
59274;BME280;45044;41.572;24.730;2022-12-19T08:22:58;93014.94;;;0.11;100.00
59274;BME280;45044;41.572;24.730;2022-12-19T08:25:26;93018.16;;;0.48;100.00
59274;BME280;45044;41.572;24.730;2022-12-19T08:27:53;93008.22;;;0.66;100.00
59274;BME280;45044;41.572;24.730;2022-12-19T08:30:20;93012.88;;;0.69;100.00
59274;BME280;45044;41.572;24.730;2022-12-19T08:32:46;93019.50;;;0.80;100.00
59274;BME280;45044;41.572;24.730;2022-12-19T08:35:13;93013.53;;;0.45;100.00
59274;BME280;45044;41.572;24.730;2022-12-19T08:37:40;93010.41;;;0.43;100.00
59274;BME280;45044;41.572;24.730;2022-12-19T08:40:08;93019.97;;;0.88;100.00
59274;BME280;45044;41.572;24.730;2022-12-19T08:42:35;93015.72;;;1.02;100.00
59274;BME280;45044;41.572;24.730;2022-12-19T08:45:03;93005.00;;;0.85;100.00
59274;BME280;45044;41.572;24.730;2022-12-19T08:47:29;93002.75;;;1.07;100.00
59274;BME280;45044;41.572;24.730;2022-12-19T08:49:56;93005.59;;;0.71;100.00
59274;BME280;45044;41.572;24.730;2022-12-19T08:52:23;92996.78;;;0.72;100.00
59274;BME280;45044;41.572;24.730;2022-12-19T08:54:50;93011.38;;;0.57;100.00
59274;BME280;45044;41.572;24.730;2022-12-19T08:57:16;92997.56;;;0.27;100.00
59274;BME280;45044;41.572;24.730;2022-12-19T08:59:43;92994.53;;;0.60;100.00
59274;BME280;45044;41.572;24.730;2022-12-19T09:02:11;92999.44;;;0.62;100.00
59274;BME280;45044;41.572;24.730;2022-12-19T09:04:38;92996.53;;;0.74;100.00
59274;BME280;45044;41.572;24.730;2022-12-19T09:07:25;92986.31;;;0.88;100.00
59274;BME280;45044;41.572;24.730;2022-12-19T09:09:52;92982.50;;;0.80;100.00
59274;BME280;45044;41.572;24.730;2022-12-19T09:12:19;92989.72;;;0.43;100.00
59274;BME280;45044;41.572;24.730;2022-12-19T09:14:46;92987.56;;;0.55;100.00
59274;BME280;45044;41.572;24.730;2022-12-19T09:17:12;92987.69;;;0.29;100.00
59274;BME280;45044;41.572;24.730;2022-12-19T09:19:40;92983.53;;;0.39;100.00
59274;BME280;45044;41.572;24.730;2022-12-19T09:22:13;92991.81;;;0.35;100.00
59274;BME280;45044;41.572;24.730;2022-12-19T09:24:40;92988.22;;;0.31;100.00
59274;BME280;45044;41.572;24.730;2022-12-19T09:27:07;92992.41;;;0.22;100.00
59274;BME280;45044;41.572;24.730;2022-12-19T09:29:33;92995.47;;;0.29;100.00
59274;BME280;45044;41.572;24.730;2022-12-19T09:32:01;92992.41;;;0.27;100.00
59274;BME280;45044;41.572;24.730;2022-12-19T09:34:28;92984.00;;;0.46;100.00
59274;BME280;45044;41.572;24.730;2022-12-19T09:37:09;92997.47;;;0.43;100.00
59274;BME280;45044;41.572;24.730;2022-12-19T09:39:46;92983.66;;;0.18;100.00
59274;BME280;45044;41.572;24.730;2022-12-19T09:42:27;92977.25;;;0.50;100.00
59274;BME280;45044;41.572;24.730;2022-12-19T09:47:38;92978.03;;;0.00;100.00
59274;BME280;45044;41.572;24.730;2022-12-19T09:53:36;92982.28;;;0.26;100.00
59274;BME280;45044;41.572;24.730;2022-12-19T09:56:11;92983.53;;;0.39;100.00
59274;BME280;45044;41.572;24.730;2022-12-19T09:58:43;92984.38;;;0.29;100.00
59274;BME280;45044;41.572;24.730;2022-12-19T10:01:19;92968.56;;;0.30;100.00
59274;BME280;45044;41.572;24.730;2022-12-19T10:03:57;92969.06;;;0.38;100.00
59274;BME280;45044;41.572;24.730;2022-12-19T10:06:26;92965.34;;;0.54;100.00
59274;BME280;45044;41.572;24.730;2022-12-19T10:09:16;92964.09;;;0.81;100.00
59274;BME280;45044;41.572;24.730;2022-12-19T10:12:18;92963.78;;;0.53;100.00
59274;BME280;45044;41.572;24.730;2022-12-19T10:18:52;92953.47;;;1.13;100.00
59274;BME280;45044;41.572;24.730;2022-12-19T10:21:41;92946.13;;;1.25;100.00
59274;BME280;45044;41.572;24.730;2022-12-19T10:30:26;92936.00;;;1.97;100.00
59274;BME280;45044;41.572;24.730;2022-12-19T10:35:36;92938.59;;;1.78;100.00
59274;BME280;45044;41.572;24.730;2022-12-19T10:38:15;92936.75;;;1.54;100.00
59274;BME280;45044;41.572;24.730;2022-12-19T10:43:30;92929.56;;;1.21;100.00
59274;BME280;45044;41.572;24.730;2022-12-19T10:46:13;92925.53;;;1.10;100.00
59274;BME280;45044;41.572;24.730;2022-12-19T10:48:42;92921.81;;;0.91;100.00
59274;BME280;45044;41.572;24.730;2022-12-19T10:51:12;92909.00;;;1.05;100.00
59274;BME280;45044;41.572;24.730;2022-12-19T10:53:39;92917.66;;;1.20;100.00
59274;BME280;45044;41.572;24.730;2022-12-19T10:56:21;92915.59;;;1.47;100.00
59274;BME280;45044;41.572;24.730;2022-12-19T10:58:52;92899.16;;;1.32;100.00
59274;BME280;45044;41.572;24.730;2022-12-19T11:01:28;92907.16;;;1.06;100.00
59274;BME280;45044;41.572;24.730;2022-12-19T11:09:38;92910.50;;;1.12;100.00
59274;BME280;45044;41.572;24.730;2022-12-19T11:15:13;92915.84;;;1.21;100.00
59274;BME280;45044;41.572;24.730;2022-12-19T11:18:08;92903.09;;;1.24;100.00
59274;BME280;45044;41.572;24.730;2022-12-19T11:26:50;92906.81;;;1.18;100.00
59274;BME280;45044;41.572;24.730;2022-12-19T11:29:43;92907.94;;;1.06;100.00
59274;BME280;45044;41.572;24.730;2022-12-19T11:35:24;92906.53;;;1.19;100.00
59274;BME280;45044;41.572;24.730;2022-12-19T11:38:03;92899.16;;;1.32;100.00
59274;BME280;45044;41.572;24.730;2022-12-19T11:40:33;92910.50;;;1.12;100.00
59274;BME280;45044;41.572;24.730;2022-12-19T11:46:38;92895.94;;;1.16;100.00
59274;BME280;45044;41.572;24.730;2022-12-19T11:52:01;92893.53;;;0.95;100.00
59274;BME280;45044;41.572;24.730;2022-12-19T11:54:35;92898.44;;;0.97;100.00
59274;BME280;45044;41.572;24.730;2022-12-19T11:57:08;92895.56;;;1.03;100.00
59274;BME280;45044;41.572;24.730;2022-12-19T11:59:39;92891.19;;;0.99;100.00
59274;BME280;45044;41.572;24.730;2022-12-19T12:02:36;92890.66;;;1.02;100.00
59274;BME280;45044;41.572;24.730;2022-12-19T12:14:19;92881.59;;;0.69;100.00
59274;BME280;45044;41.572;24.730;2022-12-19T12:23:25;92902.66;;;0.92;100.00
59274;BME280;45044;41.572;24.730;2022-12-19T12:26:24;92888.19;;;0.51;100.00
59274;BME280;45044;41.572;24.730;2022-12-19T12:35:38;92896.59;;;0.73;100.00
59274;BME280;45044;41.572;24.730;2022-12-19T12:44:15;92888.63;;;0.64;100.00
59274;BME280;45044;41.572;24.730;2022-12-19T12:49:43;92896.91;;;0.26;100.00
59274;BME280;45044;41.572;24.730;2022-12-19T12:52:18;92896.44;;;0.23;100.00
59274;BME280;45044;41.572;24.730;2022-12-19T12:54:47;92904.44;;;0.22;100.00
59274;BME280;45044;41.572;24.730;2022-12-19T12:57:32;92904.34;;;0.38;100.00
59274;BME280;45044;41.572;24.730;2022-12-19T13:03:09;92907.09;;;0.11;100.00
59274;BME280;45044;41.572;24.730;2022-12-19T13:12:34;92912.31;;;0.46;100.00
59274;BME280;45044;41.572;24.730;2022-12-19T13:23:01;92917.28;;;-0.03;100.00
59274;BME280;45044;41.572;24.730;2022-12-19T13:28:12;92912.88;;;-0.02;100.00
59274;BME280;45044;41.572;24.730;2022-12-19T13:39:37;92912.13;;;-0.08;100.00
59274;BME280;45044;41.572;24.730;2022-12-19T13:42:27;92921.97;;;-0.15;100.00
59274;BME280;45044;41.572;24.730;2022-12-19T13:45:27;92924.03;;;-0.12;100.00
59274;BME280;45044;41.572;24.730;2022-12-19T13:47:56;92921.16;;;-0.05;100.00
59274;BME280;45044;41.572;24.730;2022-12-19T13:50:34;92923.84;;;-0.26;100.00
59274;BME280;45044;41.572;24.730;2022-12-19T13:53:08;92924.88;;;-0.22;100.00
59274;BME280;45044;41.572;24.730;2022-12-19T13:55:38;92910.97;;;-0.37;100.00
59274;BME280;45044;41.572;24.730;2022-12-19T13:58:05;92912.00;;;-0.38;100.00
59274;BME280;45044;41.572;24.730;2022-12-19T14:00:40;92914.09;;;-0.45;100.00
59274;BME280;45044;41.572;24.730;2022-12-19T14:03:15;92916.94;;;-0.46;100.00
59274;BME280;45044;41.572;24.730;2022-12-19T14:05:43;92907.41;;;-0.56;100.00
59274;BME280;45044;41.572;24.730;2022-12-19T14:08:30;92915.16;;;-0.56;100.00
59274;BME280;45044;41.572;24.730;2022-12-19T14:10:57;92916.75;;;-0.66;100.00
59274;BME280;45044;41.572;24.730;2022-12-19T14:13:53;92911.09;;;-0.73;100.00
59274;BME280;45044;41.572;24.730;2022-12-19T14:16:47;92907.94;;;-0.65;100.00
59274;BME280;45044;41.572;24.730;2022-12-19T14:19:40;92903.31;;;-0.68;100.00
59274;BME280;45044;41.572;24.730;2022-12-19T14:22:35;92901.25;;;-0.66;100.00
59274;BME280;45044;41.572;24.730;2022-12-19T14:25:03;92902.25;;;-0.67;100.00
59274;BME280;45044;41.572;24.730;2022-12-19T14:27:55;92891.94;;;-0.72;100.00
59274;BME280;45044;41.572;24.730;2022-12-19T14:30:50;92903.34;;;-0.73;100.00
59274;BME280;45044;41.572;24.730;2022-12-19T14:33:35;92907.94;;;-0.65;100.00
59274;BME280;45044;41.572;24.730;2022-12-19T14:36:29;92915.38;;;-0.53;100.00
59274;BME280;45044;41.572;24.730;2022-12-19T14:38:57;92900.00;;;-0.84;100.00
59274;BME280;45044;41.572;24.730;2022-12-19T14:41:46;92902.25;;;-0.67;100.00
59274;BME280;45044;41.572;24.730;2022-12-19T14:44:49;92905.66;;;-0.71;100.00
59274;BME280;45044;41.572;24.730;2022-12-19T14:47:39;92911.09;;;-0.78;100.00
59274;BME280;45044;41.572;24.730;2022-12-19T14:50:30;92917.81;;;-0.82;100.00
59274;BME280;45044;41.572;24.730;2022-12-19T14:53:19;92915.25;;;-0.88;100.00
59274;BME280;45044;41.572;24.730;2022-12-19T14:56:13;92916.25;;;-0.89;100.00
59274;BME280;45044;41.572;24.730;2022-12-19T14:59:01;92910.59;;;-1.01;100.00
59274;BME280;45044;41.572;24.730;2022-12-19T15:01:31;92915.78;;;-1.06;100.00
59274;BME280;45044;41.572;24.730;2022-12-19T15:04:01;92914.50;;;-1.09;100.00
59274;BME280;45044;41.572;24.730;2022-12-19T15:06:52;92919.41;;;-1.07;100.00
59274;BME280;45044;41.572;24.730;2022-12-19T15:16:03;92928.47;;;-1.31;100.00
59274;BME280;45044;41.572;24.730;2022-12-19T15:18:40;92934.38;;;-1.30;100.00
59274;BME280;45044;41.572;24.730;2022-12-19T15:21:13;92924.31;;;-1.37;100.00
59274;BME280;45044;41.572;24.730;2022-12-19T15:23:42;92925.09;;;-1.42;100.00
59274;BME280;45044;41.572;24.730;2022-12-19T15:26:33;92920.19;;;-1.38;100.00
59274;BME280;45044;41.572;24.730;2022-12-19T15:29:00;92925.06;;;-1.47;100.00
59274;BME280;45044;41.572;24.730;2022-12-19T15:31:32;92932.84;;;-1.42;100.00
59274;BME280;45044;41.572;24.730;2022-12-19T15:34:30;92929.75;;;-1.39;100.00
59274;BME280;45044;41.572;24.730;2022-12-19T15:37:11;92925.09;;;-1.42;100.00
59274;BME280;45044;41.572;24.730;2022-12-19T15:39:38;92925.59;;;-1.50;100.00